createdAt,value
2019-01-17T00:03:04.623Z,6.00
2019-01-17T00:06:05.770Z,3.90
2019-01-17T00:12:29.051Z,5.60
2019-01-17T00:18:47.113Z,4.27
2019-01-17T00:25:07.632Z,6.20
2019-01-17T00:27:55.975Z,5.97
2019-01-17T00:30:41.769Z,5.00
2019-01-17T00:33:33.281Z,5.63
2019-01-17T00:36:23.771Z,5.33
2019-01-17T00:39:21.770Z,5.50
2019-01-17T00:42:13.267Z,7.43
2019-01-17T00:45:04.274Z,6.00
2019-01-17T00:48:02.782Z,6.23
2019-01-17T00:50:54.689Z,9.70
2019-01-17T00:53:48.793Z,3.93
2019-01-17T00:56:54.725Z,4.63
2019-01-17T01:03:26.777Z,5.70
2019-01-17T01:10:16.108Z,4.10
2019-01-17T01:13:14.284Z,4.87
2019-01-17T01:16:16.790Z,5.10
2019-01-17T01:19:08.178Z,8.47
2019-01-17T01:21:58.981Z,5.63
2019-01-17T01:24:55.108Z,10.30
2019-01-17T01:28:03.779Z,5.27
2019-01-17T01:30:59.652Z,5.77
2019-01-17T01:37:30.004Z,8.67
2019-01-17T01:43:48.784Z,10.60
2019-01-17T01:46:40.093Z,12.00
2019-01-17T01:49:31.101Z,8.10
2019-01-17T01:52:16.990Z,5.33
2019-01-17T01:54:51.203Z,9.30
2019-01-17T01:57:27.057Z,8.47
2019-01-17T02:00:02.786Z,8.53
2019-01-17T02:02:37.124Z,8.93
2019-01-17T02:05:11.788Z,17.80
2019-01-17T02:07:46.781Z,6.97
2019-01-17T02:10:20.994Z,4.90
2019-01-17T02:12:55.007Z,5.40
2019-01-17T02:15:29.015Z,5.70
2019-01-17T02:18:04.260Z,5.73
2019-01-17T02:20:38.673Z,6.30
2019-01-17T02:23:13.295Z,5.70
2019-01-17T02:25:47.789Z,6.77
2019-01-17T02:28:22.786Z,5.97
2019-01-17T02:30:56.787Z,6.50
2019-01-17T02:33:30.798Z,5.70
2019-01-17T02:36:06.004Z,7.77
2019-01-17T02:38:42.789Z,6.63
2019-01-17T02:41:17.790Z,8.20
2019-01-17T02:43:52.337Z,5.97
2019-01-17T02:46:28.198Z,9.20
2019-01-17T02:49:04.794Z,8.93
2019-01-17T02:51:39.073Z,7.00
2019-01-17T02:54:15.131Z,5.70
2019-01-17T02:56:52.229Z,6.87
2019-01-17T02:59:26.234Z,6.10
2019-01-17T03:02:01.803Z,5.50
2019-01-17T03:04:36.084Z,6.47
2019-01-17T03:07:11.118Z,6.80
2019-01-17T03:09:46.795Z,6.00
2019-01-17T03:12:20.806Z,6.57
2019-01-17T03:14:56.217Z,6.73
2019-01-17T03:17:30.023Z,6.47
2019-01-17T03:20:06.318Z,6.03
2019-01-17T03:22:42.342Z,5.87
2019-01-17T03:25:16.793Z,5.93
2019-01-17T03:27:52.000Z,6.30
2019-01-17T03:30:28.058Z,6.90
2019-01-17T03:33:02.797Z,6.23
2019-01-17T03:35:38.125Z,9.17
2019-01-17T03:38:13.839Z,4.70
2019-01-17T03:40:49.011Z,4.97
2019-01-17T03:43:25.275Z,5.27
2019-01-17T03:46:01.127Z,4.73
2019-01-17T03:48:36.365Z,6.27
2019-01-17T03:51:12.012Z,8.80
2019-01-17T03:53:46.021Z,4.93
2019-01-17T03:56:21.895Z,4.50
2019-01-17T03:58:57.114Z,4.47
2019-01-17T04:01:32.795Z,4.80
2019-01-17T04:04:06.802Z,4.77
2019-01-17T04:06:40.810Z,4.97
2019-01-17T04:09:16.016Z,5.23
2019-01-17T04:11:50.025Z,5.73
2019-01-17T04:14:25.060Z,6.40
2019-01-17T04:17:00.307Z,6.03
2019-01-17T04:19:34.803Z,5.40
2019-01-17T04:22:08.801Z,5.97
2019-01-17T04:28:13.805Z,6.27
2019-01-17T04:34:29.078Z,6.00
2019-01-17T04:37:04.813Z,6.50
2019-01-17T04:39:39.147Z,6.20
2019-01-17T04:42:13.809Z,6.53
2019-01-17T04:44:47.818Z,7.33
2019-01-17T04:47:21.818Z,7.40
2019-01-17T04:49:57.649Z,6.90
2019-01-17T04:52:32.809Z,7.20
2019-01-17T04:55:08.323Z,6.70
2019-01-17T04:57:42.837Z,6.73
2019-01-17T05:00:23.304Z,5.83
2019-01-17T05:02:58.134Z,8.53
2019-01-17T05:05:34.191Z,6.40
2019-01-17T05:08:10.338Z,6.53
2019-01-17T05:10:45.814Z,11.50
2019-01-17T05:13:20.726Z,8.37
2019-01-17T05:15:59.051Z,5.33
2019-01-17T05:18:35.299Z,4.63
2019-01-17T05:21:10.817Z,8.60
2019-01-17T05:23:45.364Z,4.77
2019-01-17T05:26:19.827Z,3.63
2019-01-17T05:28:53.822Z,4.77
2019-01-17T05:31:27.829Z,3.73
2019-01-17T05:34:03.040Z,3.93
2019-01-17T05:36:39.302Z,7.00
2019-01-17T05:39:13.816Z,7.73
2019-01-17T05:41:49.166Z,3.30
2019-01-17T05:44:26.089Z,4.50
2019-01-17T05:47:03.532Z,3.70
2019-01-17T05:49:42.357Z,3.17
2019-01-17T05:52:17.285Z,3.17
2019-01-17T05:58:20.838Z,3.20
2019-01-17T06:04:43.170Z,4.43
2019-01-17T06:10:59.179Z,3.63
2019-01-17T06:13:36.055Z,3.60
2019-01-17T06:16:16.864Z,4.27
2019-01-17T06:18:55.338Z,5.47
2019-01-17T06:21:30.836Z,3.33
2019-01-17T06:27:33.833Z,5.13
2019-01-17T06:33:39.055Z,2.67
2019-01-17T06:39:18.845Z,3.80
2019-01-17T06:41:54.259Z,3.10
2019-01-17T06:44:33.194Z,2.67
2019-01-17T06:47:09.444Z,2.70
2019-01-17T06:49:45.233Z,2.37
2019-01-17T06:52:21.356Z,3.07
2019-01-17T06:54:56.183Z,4.23
2019-01-17T07:04:04.228Z,3.13
2019-01-17T07:06:39.900Z,2.70
2019-01-17T07:12:55.274Z,2.60
2019-01-17T07:15:33.388Z,2.47
2019-01-17T07:18:08.902Z,2.33
2019-01-17T07:20:42.903Z,2.23
2019-01-17T07:23:20.119Z,2.70
2019-01-17T07:25:54.334Z,2.23
2019-01-17T07:28:30.390Z,2.43
2019-01-17T07:31:05.913Z,2.27
2019-01-17T07:33:40.251Z,5.70
2019-01-17T07:36:14.679Z,3.33
2019-01-17T07:42:19.912Z,2.93
2019-01-17T07:44:54.911Z,2.83
2019-01-17T07:47:52.898Z,9.63
2019-01-17T07:50:27.912Z,6.83
2019-01-17T07:53:04.131Z,2.80
2019-01-17T07:55:38.141Z,4.83
2019-01-17T07:58:14.813Z,2.63
2019-01-17T08:00:49.436Z,3.97
2019-01-17T08:03:23.923Z,5.90
2019-01-17T08:06:01.146Z,6.07
2019-01-17T08:08:37.915Z,2.77
2019-01-17T08:11:13.259Z,2.83
2019-01-17T08:13:48.933Z,7.07
2019-01-17T08:16:23.322Z,3.43
2019-01-17T08:18:59.917Z,3.43
2019-01-17T08:21:36.482Z,3.70
2019-01-17T08:24:11.495Z,10.33
2019-01-17T08:26:46.121Z,10.60
2019-01-17T08:29:22.792Z,3.60
2019-01-17T08:31:58.235Z,4.60
2019-01-17T08:34:34.704Z,5.23
2019-01-17T08:37:10.145Z,4.53
2019-01-17T08:39:46.406Z,3.20
2019-01-17T08:42:21.924Z,3.63
2019-01-17T08:44:56.922Z,3.70
2019-01-17T08:47:32.327Z,3.67
2019-01-17T08:50:08.384Z,3.73
2019-01-17T08:52:43.214Z,4.63
2019-01-17T08:55:18.918Z,3.63
2019-01-17T09:01:34.465Z,4.27
2019-01-17T09:04:09.123Z,3.20
2019-01-17T09:06:45.554Z,3.83
2019-01-17T09:09:21.129Z,3.00
2019-01-17T09:11:57.110Z,3.10
2019-01-17T09:14:33.940Z,5.63
2019-01-17T09:17:10.118Z,3.37
2019-01-17T09:23:38.120Z,4.17
2019-01-17T09:29:55.331Z,5.77
2019-01-17T09:36:10.318Z,3.80
2019-01-17T09:38:46.579Z,3.57
2019-01-17T09:41:22.117Z,4.00
2019-01-17T09:43:56.122Z,4.00
2019-01-17T09:46:31.118Z,4.10
2019-01-17T09:52:47.682Z,5.40
2019-01-17T09:55:23.339Z,6.50
2019-01-17T09:58:02.120Z,7.87
2019-01-17T10:04:16.641Z,4.10
2019-01-17T10:06:51.671Z,7.70
2019-01-17T10:09:26.125Z,4.20
2019-01-17T10:15:57.993Z,4.80
2019-01-17T10:19:06.698Z,4.03
2019-01-17T10:22:43.994Z,4.73
2019-01-17T10:25:49.337Z,7.23
2019-01-17T10:28:57.341Z,4.63
2019-01-17T10:32:00.639Z,5.53
2019-01-17T10:38:42.997Z,3.63
2019-01-17T10:41:50.674Z,3.70
2019-01-17T10:48:29.415Z,4.47
2019-01-17T10:55:00.580Z,8.87
2019-01-17T10:58:04.128Z,3.97
2019-01-17T11:01:11.474Z,5.37
2019-01-17T11:04:18.128Z,4.50
2019-01-17T11:07:15.814Z,4.57
2019-01-17T11:11:05.801Z,4.87
2019-01-17T11:14:09.127Z,4.23
2019-01-17T11:17:04.614Z,8.93
2019-01-17T11:20:14.051Z,8.50
2019-01-17T11:23:18.576Z,5.87
2019-01-17T11:26:25.353Z,4.87
2019-01-17T11:29:38.889Z,7.37
2019-01-17T11:32:47.714Z,5.50
2019-01-17T11:35:38.931Z,3.60
2019-01-17T11:38:52.505Z,7.27
2019-01-17T11:42:08.512Z,3.87
2019-01-17T11:45:14.008Z,4.87
2019-01-17T11:48:16.537Z,4.33
2019-01-17T11:51:28.790Z,3.43
2019-01-17T11:54:35.977Z,4.70
2019-01-17T11:57:52.789Z,6.50
2019-01-17T12:01:00.514Z,4.10
2019-01-17T12:03:58.971Z,3.20
2019-01-17T12:06:34.209Z,3.20
2019-01-17T12:09:10.509Z,1.87
2019-01-17T12:11:44.512Z,2.07
2019-01-17T12:14:21.976Z,1.90
2019-01-17T12:17:06.224Z,3.60
2019-01-17T12:19:42.904Z,1.83
2019-01-17T12:25:46.828Z,1.90
2019-01-17T12:28:29.819Z,2.57
2019-01-17T12:31:05.692Z,2.77
2019-01-17T12:33:42.788Z,2.07
2019-01-17T12:36:19.042Z,2.63
2019-01-17T12:38:53.871Z,2.43
2019-01-17T12:41:32.181Z,2.70
2019-01-17T12:47:42.054Z,4.23
2019-01-17T12:50:21.999Z,2.60
2019-01-17T12:52:57.440Z,2.60
2019-01-17T12:55:32.510Z,5.77
2019-01-17T12:58:07.712Z,3.97
2019-01-17T13:00:43.770Z,2.77
2019-01-17T13:03:19.419Z,3.00
2019-01-17T13:05:53.509Z,2.73
2019-01-17T13:08:36.036Z,2.70
2019-01-17T13:11:10.511Z,2.80
2019-01-17T13:13:44.880Z,3.40
2019-01-17T13:16:25.853Z,2.60
2019-01-17T13:19:00.510Z,5.73
2019-01-17T13:21:34.907Z,3.40
2019-01-17T13:24:09.722Z,2.80
2019-01-17T13:26:45.983Z,3.70
2019-01-17T13:29:23.475Z,3.40
2019-01-17T13:31:58.713Z,3.27
2019-01-17T13:34:35.181Z,2.60
2019-01-17T13:37:11.854Z,2.50
2019-01-17T13:39:46.512Z,3.47
2019-01-17T13:42:20.932Z,3.00
2019-01-17T13:44:55.723Z,2.10
2019-01-17T13:51:11.737Z,1.87
2019-01-17T13:53:47.793Z,1.90
2019-01-17T13:56:28.976Z,2.13
2019-01-17T13:59:03.393Z,2.00
2019-01-17T14:01:37.809Z,2.10
2019-01-17T14:04:20.562Z,2.00
2019-01-17T14:06:55.517Z,1.90
2019-01-17T14:09:30.897Z,3.23
2019-01-17T14:12:06.996Z,1.30
2019-01-17T14:14:43.516Z,2.90
2019-01-17T14:17:18.526Z,1.60
2019-01-17T14:19:54.104Z,3.70
2019-01-17T14:22:28.727Z,3.73
2019-01-17T14:25:02.940Z,2.60
2019-01-17T14:31:06.519Z,1.37
2019-01-17T14:33:42.929Z,1.50
2019-01-17T14:36:18.987Z,1.30
2019-01-17T14:39:30.309Z,1.70
2019-01-17T14:42:12.575Z,1.63
2019-01-17T14:44:50.171Z,2.23
2019-01-17T14:47:32.574Z,1.30
2019-01-17T14:50:08.483Z,1.17
2019-01-17T14:52:44.963Z,1.57
2019-01-17T14:55:24.859Z,1.40
2019-01-17T14:58:01.411Z,1.60
2019-01-17T15:00:38.341Z,1.43
2019-01-17T15:03:14.465Z,3.50
2019-01-17T15:05:49.995Z,1.03
2019-01-17T15:08:24.824Z,1.40
2019-01-17T15:11:00.266Z,1.47
2019-01-17T15:13:34.403Z,1.47
2019-01-17T15:16:12.586Z,1.63
2019-01-17T15:18:48.644Z,1.40
2019-01-17T15:21:25.140Z,1.10
2019-01-17T15:23:59.324Z,1.70
2019-01-17T15:26:35.015Z,1.50
2019-01-17T15:32:39.723Z,1.70
2019-01-17T15:35:20.902Z,2.90
2019-01-17T15:37:56.962Z,2.33
2019-01-17T15:44:18.099Z,1.70
2019-01-17T15:46:59.895Z,1.20
2019-01-17T15:49:36.147Z,1.67
2019-01-17T15:55:19.593Z,1.37
2019-01-17T15:57:59.335Z,1.40
2019-01-17T16:00:37.648Z,1.40
2019-01-17T16:03:14.137Z,1.57
2019-01-17T16:05:52.651Z,1.77
2019-01-17T16:11:32.394Z,1.50
2019-01-17T16:17:37.958Z,1.53
2019-01-17T16:20:16.065Z,1.63
2019-01-17T16:22:52.941Z,1.70
2019-01-17T16:28:55.848Z,1.23
2019-01-17T16:35:03.262Z,1.30
2019-01-17T16:37:38.705Z,1.33
2019-01-17T16:40:19.674Z,1.13
2019-01-17T16:42:54.711Z,1.50
2019-01-17T16:45:35.472Z,1.87
2019-01-17T16:48:08.360Z,1.27
2019-01-17T16:54:11.061Z,1.50
2019-01-17T16:56:50.398Z,1.20
2019-01-17T17:02:54.387Z,1.87
2019-01-17T17:08:58.970Z,1.30
2019-01-17T17:14:37.299Z,1.37
2019-01-17T17:20:42.767Z,1.30
2019-01-17T17:26:48.025Z,1.80
2019-01-17T17:29:25.661Z,2.07
2019-01-17T17:31:59.512Z,2.20
2019-01-17T17:38:02.738Z,2.10
2019-01-17T17:40:37.772Z,2.07
2019-01-17T17:43:15.574Z,2.30
2019-01-17T17:49:18.244Z,1.50
2019-01-17T17:51:53.463Z,1.73
2019-01-17T17:54:28.646Z,2.00
2019-01-17T17:57:04.778Z,1.37
2019-01-17T17:59:43.076Z,2.00
2019-01-17T18:02:29.414Z,1.30
2019-01-17T18:05:06.309Z,2.57
2019-01-17T18:07:40.608Z,1.50
2019-01-17T18:10:19.672Z,1.70
2019-01-17T18:12:55.798Z,1.73
2019-01-17T18:15:42.701Z,2.33
2019-01-17T18:18:18.697Z,1.60
2019-01-17T18:20:52.977Z,1.40
2019-01-17T18:26:45.233Z,1.47
2019-01-17T18:33:01.041Z,1.40
2019-01-17T18:39:18.078Z,1.30
2019-01-17T18:45:33.679Z,1.30
2019-01-17T18:48:11.376Z,1.67
2019-01-17T18:50:47.032Z,1.93
2019-01-17T18:53:23.902Z,1.60
2019-01-17T18:59:29.061Z,1.40
2019-01-17T19:02:07.697Z,1.33
2019-01-17T19:04:49.377Z,4.63
2019-01-17T19:07:26.244Z,1.40
2019-01-17T19:10:08.240Z,1.40
2019-01-17T19:12:45.164Z,1.50
2019-01-17T19:15:22.199Z,4.70
2019-01-17T19:17:57.233Z,3.60
2019-01-17T19:20:31.694Z,2.00
2019-01-17T19:23:07.100Z,1.93
2019-01-17T19:25:44.999Z,2.07
2019-01-17T19:38:29.922Z,1.80
2019-01-17T19:41:04.956Z,1.43
2019-01-17T19:47:19.126Z,2.13
2019-01-17T19:49:54.772Z,2.37
2019-01-17T19:52:29.193Z,1.80
2019-01-17T19:55:11.801Z,1.77
2019-01-17T19:57:46.017Z,2.10
2019-01-17T20:00:22.280Z,3.40
2019-01-17T20:03:05.643Z,2.13
2019-01-17T20:05:40.128Z,4.07
2019-01-17T20:08:16.188Z,5.50
2019-01-17T20:10:52.041Z,1.70
2019-01-17T20:13:24.213Z,1.70
2019-01-17T20:15:57.700Z,1.60
2019-01-17T20:22:08.903Z,2.00
2019-01-17T20:28:11.810Z,1.50
2019-01-17T20:30:56.070Z,1.53
2019-01-17T20:33:33.345Z,2.50
2019-01-17T20:36:09.436Z,1.77
2019-01-17T20:38:44.511Z,2.43
2019-01-17T20:44:52.772Z,1.60
2019-01-17T20:51:03.151Z,3.53
2019-01-17T20:53:32.377Z,1.77
2019-01-17T20:56:07.379Z,4.93
2019-01-17T20:58:46.305Z,1.90
2019-01-17T21:01:52.570Z,1.87
2019-01-17T21:10:44.391Z,1.97
2019-01-17T21:13:19.060Z,2.10
2019-01-17T21:19:23.195Z,1.90
2019-01-17T21:21:59.147Z,2.27
2019-01-17T21:24:33.091Z,3.80
2019-01-17T21:27:10.100Z,2.40
2019-01-17T21:29:44.966Z,1.60
2019-01-17T21:35:46.689Z,1.73
2019-01-17T21:41:52.931Z,1.57
2019-01-17T21:44:30.488Z,1.50
2019-01-17T21:47:04.704Z,1.50
2019-01-17T21:53:06.170Z,5.03
2019-01-17T21:59:07.267Z,1.60
2019-01-17T22:01:42.303Z,3.27
2019-01-17T22:04:17.956Z,2.30
2019-01-17T22:10:23.218Z,1.67
2019-01-17T22:12:59.067Z,1.80
2019-01-17T22:15:34.098Z,3.40
2019-01-17T22:18:15.297Z,1.97
2019-01-17T22:20:57.890Z,3.13
2019-01-17T22:23:37.015Z,1.50
2019-01-17T22:26:11.895Z,1.80
2019-01-17T22:28:46.263Z,4.30
2019-01-17T22:31:26.827Z,1.70
2019-01-17T22:34:04.111Z,2.93
2019-01-17T22:36:40.784Z,1.80
2019-01-17T22:42:41.026Z,1.60
2019-01-17T22:48:56.016Z,1.73
2019-01-17T22:54:59.946Z,1.60
2019-01-17T23:01:25.993Z,2.83
2019-01-17T23:04:01.547Z,1.50
2019-01-17T23:06:36.550Z,1.53
2019-01-17T23:09:12.557Z,1.60
2019-01-17T23:11:47.767Z,2.03
2019-01-17T23:14:24.027Z,2.10
2019-01-17T23:16:59.065Z,3.60
2019-01-17T23:19:33.549Z,3.30
2019-01-17T23:22:08.924Z,1.50
2019-01-17T23:24:43.956Z,1.73
2019-01-17T23:27:20.015Z,1.47
2019-01-17T23:29:55.048Z,2.20
2019-01-17T23:32:30.549Z,4.40
2019-01-17T23:35:05.554Z,1.37
2019-01-17T23:37:42.810Z,3.20
2019-01-17T23:40:17.549Z,4.40
2019-01-17T23:46:19.932Z,5.10
2019-01-17T23:48:50.052Z,1.83
2019-01-17T23:51:24.878Z,1.90
2019-01-17T23:57:29.423Z,1.50
